Terminal Aerodrome Forecast
Issued by NWS

Home | Current Version | Previous Version | Text Only | Print | Product List | Glossary On
Versions: 1 2 3 4 5 6 7 8 9 10 11 12 13 14 15 16
000
FTUS43 KDDC 241131
TAFHYS
TAF
KHYS 241131Z 2412/2512 18019KT P6SM BKN250 WS020/19050KT
     FM241300 18020KT P6SM BKN250
     FM241700 22018G26KT P6SM SCT250
     FM242100 24013KT P6SM SCT250
     FM250000 25008KT P6SM SCT250=

USA.gov is the U.S. government's official web portal to all federal, state and local government web resources and services.